Wetterdaten: Woche 23.06.14 - 29.06.14 (KW26)
Datum Zeit Temp. A. Feuchte A. Luftdruck Regen Wind Richtung Taupunkt Windchill Windben
23.06.2014 00:00 14,5 C 70 % 1017,9 hPa 0,0 l/m 0,0 km/h N 9,0 C 14,5 C 0,8 km/h
23.06.2014 01:00 15,0 C 67 % 1018,0 hPa 0,0 l/m 0,9 km/h N 8,9 C 15,0 C 5,6 km/h
23.06.2014 02:00 15,6 C 65 % 1018,2 hPa 0,0 l/m 0,7 km/h N 9,0 C 15,6 C 6,0 km/h
23.06.2014 03:00 14,4 C 69 % 1018,6 hPa 0,0 l/m 0,0 km/h N 8,7 C 14,4 C 0,0 km/h
23.06.2014 04:00 12,6 C 74 % 1018,8 hPa 0,0 l/m 0,0 km/h N 8,1 C 12,6 C 0,0 km/h
23.06.2014 05:00 11,4 C 79 % 1018,8 hPa 0,0 l/m 0,0 km/h N 7,9 C 11,4 C 0,0 km/h
23.06.2014 06:00 11,9 C 82 % 1019,1 hPa 0,0 l/m 0,2 km/h N 9,0 C 11,9 C 1,6 km/h
23.06.2014 07:00 16,3 C 69 % 1019,2 hPa 0,0 l/m 2,9 km/h N 10,4 C 16,3 C 12,5 km/h
23.06.2014 08:00 18,6 C 60 % 1019,4 hPa 0,0 l/m 2,0 km/h N 10,6 C 18,6 C 8,0 km/h
23.06.2014 09:00 20,3 C 54 % 1019,2 hPa 0,0 l/m 1,8 km/h N 10,6 C 20,3 C 8,4 km/h
23.06.2014 10:00 21,8 C 50 % 1018,8 hPa 0,0 l/m 1,5 km/h N 10,7 C 21,8 C 8,9 km/h
23.06.2014 11:00 23,1 C 49 % 1018,6 hPa 0,0 l/m 3,0 km/h N 11,8 C 23,1 C 14,5 km/h
23.06.2014 12:00 24,1 C 49 % 1018,1 hPa 0,0 l/m 3,6 km/h N 12,7 C 24,1 C 14,5 km/h
23.06.2014 13:00 24,9 C 47 % 1017,3 hPa 0,0 l/m 5,3 km/h N 12,8 C 24,9 C 20,9 km/h
23.06.2014 14:00 25,5 C 46 % 1016,5 hPa 0,0 l/m 4,1 km/h N 12,9 C 25,5 C 15,7 km/h
23.06.2014 15:00 27,2 C 42 % 1016,0 hPa 0,0 l/m 1,6 km/h N 13,1 C 27,2 C 9,3 km/h
23.06.2014 16:00 26,8 C 42 % 1015,3 hPa 0,0 l/m 0,9 km/h N 12,9 C 26,8 C 9,6 km/h
23.06.2014 17:00 26,7 C 43 % 1014,7 hPa 0,0 l/m 1,4 km/h N 13,1 C 26,7 C 8,4 km/h
23.06.2014 18:00 26,1 C 45 % 1014,0 hPa 0,0 l/m 1,0 km/h N 13,2 C 26,1 C 6,4 km/h
23.06.2014 19:00 25,4 C 48 % 1013,8 hPa 0,0 l/m 1,9 km/h N 13,6 C 25,4 C 10,1 km/h
23.06.2014 20:00 24,3 C 53 % 1013,6 hPa 0,0 l/m 0,1 km/h N 14,2 C 24,3 C 1,6 km/h
23.06.2014 21:00 21,6 C 63 % 1013,7 hPa 0,0 l/m 0,0 km/h N 14,1 C 21,6 C 0,0 km/h
23.06.2014 22:00 19,5 C 71 % 1013,8 hPa 0,0 l/m 0,0 km/h N 14,1 C 19,5 C 0,0 km/h
23.06.2014 23:00 18,6 C 75 % 1013,3 hPa 0,0 l/m 0,3 km/h N 14,1 C 18,6 C 2,8 km/h
24.06.2014 00:00 19,2 C 59 % 1013,8 hPa 0,0 l/m 1,8 km/h N 11,0 C 19,2 C 10,1 km/h
24.06.2014 01:00 18,9 C 54 % 1014,2 hPa 0,0 l/m 1,5 km/h N 9,5 C 18,9 C 8,5 km/h
24.06.2014 02:00 18,1 C 54 % 1013,8 hPa 0,0 l/m 1,3 km/h N 8,7 C 18,1 C 8,0 km/h
24.06.2014 03:00 17,4 C 56 % 1013,5 hPa 0,0 l/m 2,0 km/h N 8,6 C 17,4 C 9,3 km/h
24.06.2014 04:00 16,8 C 59 % 1013,9 hPa 0,0 l/m 1,9 km/h N 8,6 C 16,8 C 8,0 km/h
24.06.2014 05:00 16,3 C 61 % 1014,2 hPa 0,0 l/m 2,8 km/h N 8,8 C 16,3 C 10,5 km/h
24.06.2014 06:00 16,2 C 61 % 1014,2 hPa 0,0 l/m 3,5 km/h N 8,8 C 16,2 C 13,3 km/h
24.06.2014 07:00 16,7 C 62 % 1014,0 hPa 0,0 l/m 4,1 km/h N 9,3 C 16,7 C 14,5 km/h
24.06.2014 08:00 18,1 C 57 % 1014,3 hPa 0,0 l/m 5,9 km/h N 9,4 C 18,0 C 18,1 km/h
24.06.2014 09:00 18,2 C 57 % 1014,6 hPa 0,0 l/m 4,0 km/h N 9,4 C 18,2 C 12,5 km/h
24.06.2014 10:00 18,7 C 56 % 1014,9 hPa 0,0 l/m 4,0 km/h N 9,6 C 18,7 C 13,7 km/h
24.06.2014 11:00 17,9 C 59 % 1015,6 hPa 0,0 l/m 3,1 km/h N 9,6 C 17,9 C 11,3 km/h
24.06.2014 12:00 17,9 C 58 % 1015,7 hPa 0,0 l/m 2,9 km/h N 9,6 C 17,9 C 11,7 km/h
24.06.2014 13:00 19,1 C 57 % 1015,3 hPa 0,0 l/m 6,2 km/h N 10,3 C 18,8 C 15,3 km/h
24.06.2014 14:00 19,6 C 56 % 1015,0 hPa 0,0 l/m 4,8 km/h N 10,6 C 19,6 C 10,1 km/h
24.06.2014 15:00 19,4 C 58 % 1014,8 hPa 0,0 l/m 3,9 km/h N 10,9 C 19,4 C 10,1 km/h
24.06.2014 16:00 19,5 C 59 % 1014,5 hPa 0,0 l/m 3,9 km/h N 11,3 C 19,5 C 15,3 km/h
24.06.2014 17:00 20,6 C 57 % 1013,7 hPa 0,0 l/m 4,2 km/h N 11,8 C 20,6 C 14,5 km/h
24.06.2014 18:00 22,2 C 51 % 1013,0 hPa 0,0 l/m 1,8 km/h N 11,6 C 22,2 C 9,3 km/h
24.06.2014 19:00 22,5 C 50 % 1012,5 hPa 0,0 l/m 0,8 km/h N 11,5 C 22,5 C 6,0 km/h
24.06.2014 20:00 21,6 C 54 % 1012,5 hPa 0,0 l/m 0,1 km/h N 11,8 C 21,6 C 2,8 km/h
24.06.2014 21:00 18,3 C 64 % 1012,6 hPa 0,0 l/m 0,2 km/h N 11,3 C 18,3 C 3,2 km/h
24.06.2014 22:00 16,3 C 69 % 1012,9 hPa 0,0 l/m 0,3 km/h N 10,6 C 16,3 C 4,4 km/h
24.06.2014 23:00 15,4 C 71 % 1012,6 hPa 0,0 l/m 0,1 km/h N 10,1 C 15,4 C 2,0 km/h
25.06.2014 00:00 13,8 C 75 % 1012,3 hPa 0,0 l/m 0,0 km/h N 9,3 C 13,8 C 0,0 km/h
25.06.2014 01:00 13,0 C 77 % 1012,1 hPa 0,0 l/m 0,0 km/h N 9,1 C 13,0 C 0,8 km/h
25.06.2014 02:00 12,1 C 80 % 1011,5 hPa 0,0 l/m 0,0 km/h N 8,6 C 12,1 C 0,8 km/h
25.06.2014 03:00 11,6 C 82 % 1011,0 hPa 0,0 l/m 0,0 km/h N 8,6 C 11,6 C 0,4 km/h
25.06.2014 04:00 11,4 C 82 % 1010,3 hPa 0,0 l/m 0,0 km/h N 8,5 C 11,4 C 1,6 km/h
25.06.2014 05:00 11,3 C 83 % 1009,9 hPa 0,0 l/m 0,0 km/h N 8,4 C 11,3 C 1,2 km/h
25.06.2014 06:00 11,9 C 83 % 1009,5 hPa 0,0 l/m 0,1 km/h N 9,1 C 11,9 C 2,4 km/h
25.06.2014 07:00 13,9 C 81 % 1008,9 hPa 0,0 l/m 0,0 km/h N 10,6 C 13,9 C 1,6 km/h
25.06.2014 08:00 17,2 C 71 % 1008,8 hPa 0,0 l/m 0,5 km/h N 11,8 C 17,2 C 5,2 km/h
25.06.2014 09:00 20,0 C 62 % 1008,6 hPa 0,0 l/m 1,7 km/h N 12,4 C 20,0 C 8,4 km/h
25.06.2014 10:00 21,9 C 57 % 1008,0 hPa 0,0 l/m 2,6 km/h N 13,0 C 21,9 C 11,3 km/h
25.06.2014 11:00 23,8 C 48 % 1007,4 hPa 0,0 l/m 2,7 km/h N 12,0 C 23,8 C 12,9 km/h
25.06.2014 12:00 25,6 C 40 % 1006,8 hPa 0,0 l/m 3,2 km/h N 10,8 C 25,6 C 15,3 km/h
25.06.2014 13:00 24,7 C 42 % 1006,5 hPa 0,0 l/m 3,0 km/h N 10,9 C 24,7 C 13,3 km/h
25.06.2014 14:00 24,8 C 44 % 1005,7 hPa 0,0 l/m 2,3 km/h N 11,7 C 24,8 C 9,7 km/h
25.06.2014 15:00 21,9 C 53 % 1006,3 hPa 0,5 l/m 3,0 km/h N 11,4 C 21,9 C 13,6 km/h
25.06.2014 16:00 15,1 C 81 % 1007,8 hPa 4,9 l/m 7,0 km/h N 11,9 C 13,9 C 19,7 km/h
25.06.2014 17:00 15,8 C 82 % 1006,9 hPa 0,3 l/m 1,7 km/h N 12,6 C 15,8 C 6,4 km/h
25.06.2014 18:00 17,5 C 81 % 1007,0 hPa 0,0 l/m 0,5 km/h N 14,2 C 17,5 C 5,6 km/h
25.06.2014 19:00 15,8 C 80 % 1008,3 hPa 0,8 l/m 9,9 km/h N 12,3 C 13,5 C 26,1 km/h
25.06.2014 20:00 13,7 C 83 % 1008,3 hPa 0,8 l/m 5,8 km/h N 10,8 C 13,0 C 21,7 km/h
25.06.2014 21:00 13,8 C 81 % 1009,0 hPa 0,0 l/m 7,4 km/h N 10,6 C 13,0 C 20,5 km/h
25.06.2014 22:00 14,2 C 80 % 1009,4 hPa 0,0 l/m 10,1 km/h N 10,8 C 12,2 C 25,8 km/h
25.06.2014 23:00 14,0 C 80 % 1009,8 hPa 0,0 l/m 8,5 km/h N 10,6 C 12,9 C 23,3 km/h
26.06.2014 00:00 13,7 C 81 % 1010,0 hPa 0,0 l/m 6,3 km/h N 10,5 C 13,3 C 17,7 km/h
26.06.2014 01:00 13,7 C 80 % 1010,6 hPa 0,0 l/m 6,3 km/h N 10,2 C 13,0 C 17,7 km/h
26.06.2014 02:00 13,6 C 76 % 1010,6 hPa 0,0 l/m 9,6 km/h N 9,4 C 11,8 C 24,5 km/h
26.06.2014 03:00 13,3 C 74 % 1011,1 hPa 0,0 l/m 9,2 km/h N 8,7 C 11,6 C 27,0 km/h
26.06.2014 04:00 12,6 C 77 % 1012,0 hPa 0,0 l/m 5,5 km/h N 8,6 C 12,6 C 21,7 km/h
26.06.2014 05:00 12,7 C 75 % 1012,4 hPa 0,0 l/m 11,5 km/h N 8,3 C 9,8 C 30,2 km/h
26.06.2014 06:00 13,0 C 73 % 1013,2 hPa 0,0 l/m 14,0 km/h N 8,2 C 9,2 C 31,0 km/h
26.06.2014 07:00 13,1 C 73 % 1013,7 hPa 0,0 l/m 13,2 km/h N 8,4 C 9,7 C 31,0 km/h
26.06.2014 08:00 14,4 C 73 % 1014,2 hPa 0,0 l/m 10,9 km/h N 9,5 C 12,1 C 30,6 km/h
26.06.2014 09:00 15,5 C 69 % 1014,7 hPa 0,0 l/m 11,7 km/h N 9,9 C 13,0 C 28,2 km/h
26.06.2014 10:00 16,1 C 66 % 1015,1 hPa 0,0 l/m 9,3 km/h N 9,7 C 14,7 C 27,0 km/h
26.06.2014 11:00 17,3 C 63 % 1015,0 hPa 0,3 l/m 7,9 km/h N 10,2 C 16,4 C 22,5 km/h
26.06.2014 12:00 17,7 C 60 % 1015,0 hPa 0,0 l/m 5,6 km/h N 9,9 C 17,7 C 16,9 km/h
26.06.2014 13:00 18,4 C 58 % 1015,1 hPa 0,0 l/m 4,6 km/h N 9,9 C 18,4 C 14,9 km/h
26.06.2014 14:00 20,0 C 53 % 1014,7 hPa 0,0 l/m 4,5 km/h N 9,9 C 20,0 C 16,1 km/h
26.06.2014 15:00 20,5 C 51 % 1014,3 hPa 0,0 l/m 3,6 km/h N 9,9 C 20,5 C 12,9 km/h
26.06.2014 16:00 21,1 C 47 % 1013,7 hPa 0,0 l/m 2,3 km/h N 9,4 C 21,1 C 10,9 km/h
26.06.2014 17:00 22,2 C 43 % 1013,1 hPa 0,0 l/m 2,1 km/h N 9,1 C 22,2 C 8,4 km/h
26.06.2014 18:00 22,9 C 43 % 1012,8 hPa 0,0 l/m 1,1 km/h N 9,6 C 22,9 C 7,2 km/h
26.06.2014 19:00 22,1 C 44 % 1012,9 hPa 0,0 l/m 0,7 km/h N 9,2 C 22,1 C 5,6 km/h
26.06.2014 20:00 20,4 C 49 % 1013,4 hPa 0,0 l/m 0,1 km/h N 9,2 C 20,4 C 1,2 km/h
26.06.2014 21:00 17,9 C 60 % 1014,2 hPa 0,0 l/m 0,0 km/h N 9,8 C 17,9 C 0,0 km/h
26.06.2014 22:00 16,7 C 67 % 1014,7 hPa 0,0 l/m 0,0 km/h N 10,5 C 16,7 C 0,0 km/h
26.06.2014 23:00 15,9 C 71 % 1015,1 hPa 0,0 l/m 0,0 km/h N 10,5 C 15,9 C 0,4 km/h
27.06.2014 00:00 14,4 C 75 % 1015,4 hPa 0,0 l/m 0,0 km/h N 10,0 C 14,4 C 0,0 km/h
27.06.2014 01:00 13,1 C 78 % 1015,5 hPa 0,0 l/m 0,0 km/h N 9,3 C 13,1 C 0,0 km/h
27.06.2014 02:00 11,7 C 80 % 1015,6 hPa 0,0 l/m 0,0 km/h N 8,3 C 11,7 C 0,0 km/h
27.06.2014 03:00 10,7 C 83 % 1015,8 hPa 0,0 l/m 0,0 km/h N 7,8 C 10,7 C 0,0 km/h
27.06.2014 04:00 9,9 C 83 % 1015,9 hPa 0,0 l/m 0,0 km/h N 7,2 C 9,9 C 0,0 km/h
27.06.2014 05:00 9,5 C 84 % 1016,3 hPa 0,0 l/m 0,0 km/h N 6,8 C 9,5 C 0,0 km/h
27.06.2014 06:00 10,0 C 82 % 1016,8 hPa 0,0 l/m 0,0 km/h N 7,0 C 10,0 C 0,0 km/h
27.06.2014 07:00 12,1 C 82 % 1017,1 hPa 0,0 l/m 0,0 km/h N 9,1 C 12,1 C 1,2 km/h
27.06.2014 08:00 16,9 C 69 % 1017,4 hPa 0,0 l/m 0,4 km/h N 11,1 C 16,9 C 4,4 km/h
27.06.2014 09:00 20,0 C 56 % 1017,8 hPa 0,0 l/m 1,9 km/h N 10,8 C 20,0 C 9,7 km/h
27.06.2014 10:00 21,7 C 50 % 1017,8 hPa 0,0 l/m 1,7 km/h N 10,9 C 21,7 C 8,4 km/h
27.06.2014 11:00 23,3 C 46 % 1017,7 hPa 0,0 l/m 1,7 km/h N 11,0 C 23,3 C 8,9 km/h
27.06.2014 12:00 23,7 C 44 % 1017,3 hPa 0,0 l/m 1,8 km/h N 10,5 C 23,7 C 9,6 km/h
27.06.2014 13:00 24,9 C 42 % 1017,0 hPa 0,0 l/m 2,9 km/h N 11,0 C 24,9 C 12,9 km/h
27.06.2014 14:00 25,4 C 40 % 1016,5 hPa 0,0 l/m 2,0 km/h N 10,6 C 25,4 C 10,5 km/h
27.06.2014 15:00 24,4 C 41 % 1016,4 hPa 0,0 l/m 1,5 km/h N 10,1 C 24,4 C 6,8 km/h
27.06.2014 16:00 24,8 C 39 % 1016,2 hPa 0,0 l/m 2,0 km/h N 9,9 C 24,8 C 8,9 km/h
27.06.2014 17:00 25,0 C 40 % 1016,1 hPa 0,0 l/m 0,6 km/h N 10,4 C 25,0 C 6,8 km/h
27.06.2014 18:00 24,9 C 42 % 1015,9 hPa 0,0 l/m 0,0 km/h N 11,0 C 24,9 C 1,6 km/h
27.06.2014 19:00 24,4 C 44 % 1015,6 hPa 0,0 l/m 1,4 km/h N 11,2 C 24,4 C 6,8 km/h
27.06.2014 20:00 23,1 C 47 % 1015,6 hPa 0,0 l/m 3,6 km/h N 11,2 C 23,1 C 12,9 km/h
27.06.2014 21:00 21,1 C 54 % 1015,8 hPa 0,0 l/m 0,3 km/h N 11,4 C 21,1 C 3,6 km/h
27.06.2014 22:00 19,3 C 61 % 1016,0 hPa 0,0 l/m 0,6 km/h N 11,6 C 19,3 C 5,2 km/h
27.06.2014 23:00 18,7 C 64 % 1016,0 hPa 0,0 l/m 0,5 km/h N 11,8 C 18,7 C 4,4 km/h
28.06.2014 00:00 17,9 C 68 % 1015,9 hPa 0,0 l/m 1,6 km/h N 11,8 C 17,9 C 7,6 km/h
28.06.2014 01:00 16,8 C 72 % 1015,6 hPa 0,0 l/m 0,1 km/h N 11,6 C 16,8 C 2,4 km/h
28.06.2014 02:00 15,4 C 76 % 1015,5 hPa 0,0 l/m 0,0 km/h N 11,2 C 15,4 C 0,0 km/h
28.06.2014 03:00 13,9 C 81 % 1015,4 hPa 0,0 l/m 0,0 km/h N 10,6 C 13,9 C 0,0 km/h
28.06.2014 04:00 12,9 C 83 % 1015,3 hPa 0,0 l/m 0,0 km/h N 10,0 C 12,9 C 0,0 km/h
28.06.2014 05:00 12,5 C 83 % 1015,2 hPa 0,0 l/m 0,1 km/h N 9,6 C 12,5 C 1,2 km/h
28.06.2014 06:00 13,3 C 82 % 1015,4 hPa 0,0 l/m 0,3 km/h N 10,2 C 13,3 C 2,8 km/h
28.06.2014 07:00 15,5 C 83 % 1015,4 hPa 0,0 l/m 0,2 km/h N 12,5 C 15,5 C 2,4 km/h
28.06.2014 08:00 20,4 C 69 % 1015,1 hPa 0,0 l/m 2,0 km/h N 14,5 C 20,4 C 11,3 km/h
28.06.2014 09:00 23,2 C 61 % 1015,2 hPa 0,0 l/m 2,3 km/h N 15,3 C 23,2 C 11,3 km/h
28.06.2014 10:00 26,0 C 53 % 1014,8 hPa 0,0 l/m 0,8 km/h N 15,5 C 26,0 C 5,6 km/h
28.06.2014 11:00 26,4 C 50 % 1014,3 hPa 0,0 l/m 1,4 km/h N 15,1 C 26,4 C 10,1 km/h
28.06.2014 12:00 27,8 C 46 % 1013,7 hPa 0,0 l/m 0,5 km/h N 14,9 C 27,8 C 4,0 km/h
28.06.2014 13:00 28,8 C 46 % 1013,1 hPa 0,0 l/m 0,0 km/h N 16,0 C 28,8 C 0,0 km/h
28.06.2014 14:00 28,5 C 45 % 1012,6 hPa 0,0 l/m 0,0 km/h N 15,2 C 28,5 C 0,0 km/h
28.06.2014 15:00 29,0 C 42 % 1011,9 hPa 0,0 l/m 0,0 km/h N 14,9 C 29,0 C 0,0 km/h
28.06.2014 16:00 28,2 C 45 % 1011,4 hPa 0,0 l/m 0,0 km/h N 15,0 C 28,2 C 0,0 km/h
28.06.2014 17:00 28,1 C 45 % 1010,7 hPa 0,0 l/m 0,0 km/h N 15,1 C 28,1 C 0,0 km/h
28.06.2014 18:00 27,6 C 46 % 1010,2 hPa 0,0 l/m 0,0 km/h N 14,8 C 27,6 C 0,0 km/h
28.06.2014 19:00 26,6 C 49 % 1009,9 hPa 0,0 l/m 4,1 km/h N 14,9 C 26,5 C 18,5 km/h
28.06.2014 20:00 25,3 C 53 % 1009,6 hPa 0,0 l/m 7,5 km/h N 15,0 C 25,0 C 24,9 km/h
28.06.2014 21:00 24,0 C 58 % 1009,6 hPa 0,0 l/m 5,2 km/h N 15,0 C 23,9 C 17,3 km/h
28.06.2014 22:00 22,7 C 62 % 1009,4 hPa 0,0 l/m 3,4 km/h N 15,0 C 22,7 C 9,3 km/h
28.06.2014 23:00 21,3 C 68 % 1009,3 hPa 0,0 l/m 0,3 km/h N 15,0 C 21,3 C 4,4 km/h
29.06.2014 00:00 19,7 C 74 % 1009,4 hPa 0,0 l/m 0,0 km/h N 14,9 C 19,7 C 0,4 km/h
29.06.2014 01:00 19,2 C 77 % 1008,9 hPa 0,0 l/m 0,5 km/h N 15,0 C 19,2 C 3,2 km/h
29.06.2014 02:00 18,5 C 78 % 1008,7 hPa 0,0 l/m 0,0 km/h N 14,5 C 18,5 C 0,4 km/h
29.06.2014 03:00 17,1 C 80 % 1008,3 hPa 0,0 l/m 0,0 km/h N 13,6 C 17,1 C 0,4 km/h
29.06.2014 04:00 16,2 C 82 % 1008,3 hPa 0,0 l/m 0,0 km/h N 13,1 C 16,2 C 0,0 km/h
29.06.2014 05:00 15,4 C 83 % 1008,3 hPa 0,0 l/m 0,0 km/h N 12,5 C 15,4 C 0,0 km/h
29.06.2014 06:00 16,3 C 82 % 1008,7 hPa 0,0 l/m 0,9 km/h N 13,2 C 16,3 C 4,4 km/h
29.06.2014 07:00 18,8 C 77 % 1008,9 hPa 0,0 l/m 4,2 km/h N 14,7 C 18,8 C 15,3 km/h
29.06.2014 08:00 21,5 C 70 % 1008,5 hPa 0,0 l/m 3,3 km/h N 15,7 C 21,5 C 12,1 km/h
29.06.2014 09:00 23,2 C 64 % 1008,1 hPa 0,0 l/m 3,5 km/h N 15,9 C 23,2 C 11,7 km/h
29.06.2014 10:00 25,4 C 55 % 1007,5 hPa 0,0 l/m 1,5 km/h N 15,7 C 25,4 C 9,6 km/h
29.06.2014 11:00 26,8 C 51 % 1007,0 hPa 0,0 l/m 1,6 km/h N 15,6 C 26,8 C 8,9 km/h
29.06.2014 12:00 27,4 C 53 % 1006,6 hPa 0,0 l/m 1,1 km/h N 16,8 C 27,4 C 7,6 km/h
29.06.2014 13:00 27,9 C 50 % 1005,9 hPa 0,0 l/m 0,3 km/h N 16,4 C 27,9 C 4,8 km/h
29.06.2014 14:00 27,3 C 54 % 1005,8 hPa 1,8 l/m 0,8 km/h N 17,1 C 27,3 C 5,6 km/h
29.06.2014 15:00 22,0 C 79 % 1006,3 hPa 2,3 l/m 3,3 km/h N 18,1 C 22,0 C 15,3 km/h
29.06.2014 16:00 19,0 C 82 % 1006,9 hPa 1,6 l/m 5,2 km/h N 15,9 C 19,1 C 20,5 km/h
29.06.2014 17:00 20,6 C 78 % 1007,3 hPa 0,0 l/m 5,1 km/h N 16,5 C 20,5 C 17,7 km/h
29.06.2014 18:00 20,2 C 73 % 1007,8 hPa 0,0 l/m 6,5 km/h N 15,2 C 19,9 C 23,3 km/h
29.06.2014 19:00 18,7 C 73 % 1008,4 hPa 0,0 l/m 3,7 km/h N 13,7 C 18,7 C 18,5 km/h
29.06.2014 20:00 17,5 C 75 % 1008,6 hPa 0,0 l/m 5,2 km/h N 13,0 C 17,5 C 21,7 km/h
29.06.2014 21:00 17,6 C 74 % 1008,9 hPa 0,0 l/m 5,4 km/h N 12,9 C 17,3 C 20,5 km/h
29.06.2014 22:00 17,5 C 73 % 1008,9 hPa 0,0 l/m 7,1 km/h N 12,5 C 17,0 C 22,1 km/h
29.06.2014 23:00 16,2 C 78 % 1009,3 hPa 1,6 l/m 7,0 km/h N 12,4 C 15,7 C 22,9 km/h
Min-Datum _ 27.06.14 27.06.14 25.06.14 - 23.06.14 - 27.06.14 26.06.14 23.06.14
_ Min-Zeit 05:30 14:45 14:45 - 00:00 - 05:30 06:00 00:00
Minimum _ 9,4 C 36 % 1005,6 hPa - 0,0 km/h - 6,7 C 8,4 C 0,0 km/h
Max-Datum _ 28.06.14 27.06.14 23.06.14 25.06.14 25.06.14 - 29.06.14 28.06.14 25.06.14
_ Max-Zeit 15:15 04:45 08:15 16:15 19:30 - 15:15 15:15 19:15
Maximum _ 29,8 C 84 % 1019,4 hPa 4,9 l/m 16,0 km/h
N
- 18,8 C 29,8 C 38,6 km/h
N
Durchschnitt _ 19,1 C 63 % 1012,9 hPa #14,8 l/m 2,5 km/h N 11,5 C 18,9 C 9,4 km/h